This is the latest recevied weather packets stored in our database for station/object GW4003. If no packets are shown the sender has not sent any weather packets the latest 10 day(s).
| Time | Temp. | Humidity | Pressure | Rain* | Wind** | Luminosity | Snow |
|---|---|---|---|---|---|---|---|
| 1788364392 | 25° C | 36% | 1020.7 hPa | 0 mm | - | - | - |
| 1788364088 | 25° C | 37% | 1020.7 hPa | 0 mm | - | - | - |
| 1788363784 | 24.44° C | 38% | 1020.7 hPa | 0 mm | - | - | - |
| 1788363480 | 23.89° C | 38% | 1020.7 hPa | 0 mm | - | - | - |
| 1788363176 | 23.89° C | 37% | 1020.7 hPa | 0 mm | - | - | - |
| 1788362872 | 23.33° C | 39% | 1020.7 hPa | 0 mm | - | - | - |
| 1788362568 | 23.89° C | 38% | 1020.7 hPa | 0 mm | - | - | - |
| 1788362265 | 23.33° C | 40% | 1020.6 hPa | 0 mm | - | - | - |
| 1788361961 | 23.33° C | 41% | 1020.6 hPa | 0 mm | - | - | - |
| 1788361657 | 22.22° C | 43% | 1020.6 hPa | 0 mm | - | - | - |
| 1788361353 | 21.67° C | 44% | 1020.6 hPa | 0 mm | - | - | - |
| 1788361050 | 21.67° C | 45% | 1020.6 hPa | 0 mm | - | - | - |
| 1788360746 | 21.11° C | 47% | 1020.6 hPa | 0 mm | - | - | - |
| 1788360442 | 21.11° C | 48% | 1020.7 hPa | 0 mm | - | - | - |
| 1788360139 | 20.56° C | 48% | 1020.7 hPa | 0 mm | - | - | - |
| 1788359835 | 20° C | 51% | 1020.6 hPa | 0 mm | - | - | - |
| 1788359531 | 19.44° C | 55% | 1020.6 hPa | 0 mm | - | - | - |
| 1788359227 | 18.89° C | 57% | 1020.6 hPa | 0 mm | - | - | - |
| 1788358923 | 18.33° C | 60% | 1020.7 hPa | 0 mm | - | - | - |
| 1788358619 | 17.78° C | 61% | 1020.7 hPa | 0 mm | - | - | - |
| 1788358316 | 17.22° C | 62% | 1020.6 hPa | 0 mm | - | - | - |
| 1788358012 | 17.22° C | 64% | 1020.6 hPa | 0 mm | - | - | - |
| 1788357708 | 16.67° C | 65% | 1020.5 hPa | 0 mm | - | - | - |
| 1788357404 | 16.67° C | 65% | 1020.5 hPa | 0 mm | - | - | - |
| 1788357100 | 16.67° C | 66% | 1020.5 hPa | 0 mm | - | - | - |
* Rain latest hour (hover to see other rain measurements)
** Current wind speed in m/s (hover to see current wind gust speed)